Time;durP1;ratioP1;P1;durP2;ratioP2;P2;SDS_P1;SDS_P2;PMS_P1;PMS_P2;Temp;Humidity;BMP_temperature;BMP_pressure;BME280_temperature;BME280_humidity;BME280_pressure;Samples;Min_cycle;Max_cycle;Signal;HPM_P1;HPM_P2
2023/01/18 00:01:35;;;;;;;1.90;0.65;;;;;;;;;;5068212;28;20044;-66
2023/01/18 00:04:05;;;;;;;3.15;0.60;;;;;;;;;;5068454;28;20052;-66
2023/01/18 00:06:35;;;;;;;0.85;0.35;;;;;;;;;;5051268;28;20492;-65
2023/01/18 00:09:05;;;;;;;0.43;0.30;;;;;;;;;;5068331;28;20508;-65
2023/01/18 00:11:35;;;;;;;0.55;0.30;;;;;;;;;;5035639;28;20044;-64
2023/01/18 00:14:06;;;;;;;1.73;0.40;;;;;;;;;;5072704;28;20048;-65
2023/01/18 00:16:38;;;;;;;3.65;0.40;;;;;;;;;;5051821;28;20049;-64
2023/01/18 00:19:12;;;;;;;;;;;;;;;;;;5036224;28;20063;-65
2023/01/18 00:21:43;;;;;;;1.52;0.50;;;;;;;;;;5052442;28;19921;-64
2023/01/18 00:24:14;;;;;;;3.40;0.50;;;;;;;;;;5012305;28;20042;-64
2023/01/18 00:26:44;;;;;;;3.30;0.63;;;;;;;;;;4947541;28;20494;-64
2023/01/18 00:29:15;;;;;;;2.58;0.38;;;;;;;;;;5012131;28;20486;-63
2023/01/18 00:31:45;;;;;;;5.20;1.02;;;;;;;;;;4990287;28;20057;-64
2023/01/18 00:34:17;;;;;;;3.25;0.35;;;;;;;;;;5032064;28;20045;-65
2023/01/18 00:36:48;;;;;;;2.92;0.38;;;;;;;;;;5031745;28;20058;-65
2023/01/18 00:39:18;;;;;;;0.40;0.25;;;;;;;;;;5011872;28;20058;-64
2023/01/18 00:44:37;;;;;;;0.68;0.40;;;;;;;;;;4963530;28;20038;-64
2023/01/18 00:47:07;;;;;;;1.17;0.32;;;;;;;;;;5011979;28;20058;-64
2023/01/18 00:49:38;;;;;;;5.90;0.47;;;;;;;;;;5011642;28;20048;-64
2023/01/18 00:52:08;;;;;;;2.28;0.50;;;;;;;;;;5011822;28;20065;-64
2023/01/18 00:54:38;;;;;;;2.88;0.40;;;;;;;;;;5011541;28;20489;-65
2023/01/18 00:57:09;;;;;;;1.02;0.40;;;;;;;;;;4979143;28;20050;-64
2023/01/18 00:59:39;;;;;;;0.88;0.40;;;;;;;;;;4979886;28;20452;-64
2023/01/18 01:02:09;;;;;;;6.32;0.85;;;;;;;;;;5023500;28;20080;-64
2023/01/18 01:07:27;;;;;;;6.25;0.70;;;;;;;;;;5029091;28;20064;-65
2023/01/18 01:09:58;;;;;;;1.67;0.50;;;;;;;;;;5051346;28;20061;-65
2023/01/18 01:26:30;;;;;;;0.85;0.32;;;;;;;;;;5095286;28;20056;-65
2023/01/18 01:29:00;;;;;;;2.90;0.50;;;;;;;;;;5114154;28;20056;-64
2023/01/18 01:31:31;;;;;;;0.65;0.30;;;;;;;;;;5113958;28;20083;-65
2023/01/18 01:34:01;;;;;;;1.08;0.68;;;;;;;;;;5078823;28;20137;-64
2023/01/18 01:36:31;;;;;;;5.00;0.60;;;;;;;;;;5114068;28;20094;-64
2023/01/18 01:39:01;;;;;;;4.70;0.88;;;;;;;;;;5114133;28;20458;-65
2023/01/18 01:41:33;;;;;;;3.50;0.60;;;;;;;;;;5113818;28;20480;-65
2023/01/18 01:44:32;;;;;;;2.75;0.40;;;;;;;;;;5113466;28;20048;-64
2023/01/18 01:47:27;;;;;;;1.40;0.43;;;;;;;;;;5077807;28;20048;-64
2023/01/18 01:50:08;;;;;;;1.20;0.40;;;;;;;;;;5113661;28;20510;-64
2023/01/18 01:52:40;;;;;;;2.22;0.52;;;;;;;;;;5113613;28;20487;-64
2023/01/18 01:55:32;;;;;;;1.25;0.32;;;;;;;;;;5113748;28;20047;-64
2023/01/18 01:58:14;;;;;;;1.95;0.47;;;;;;;;;;5057153;28;20040;-64
2023/01/18 02:00:44;;;;;;;2.80;0.43;;;;;;;;;;5090492;28;20785;-64
2023/01/18 02:03:19;;;;;;;0.80;0.32;;;;;;;;;;5090648;28;20055;-64
2023/01/18 02:05:54;;;;;;;0.63;0.35;;;;;;;;;;5090472;28;20044;-64
2023/01/18 02:08:27;;;;;;;1.50;0.40;;;;;;;;;;5090539;28;20044;-64
2023/01/18 02:10:57;;;;;;;5.28;0.90;;;;;;;;;;5090391;28;20056;-65
2023/01/18 02:13:28;;;;;;;0.55;0.40;;;;;;;;;;5073180;28;20492;-64
2023/01/18 02:16:09;;;;;;;1.42;0.40;;;;;;;;;;5090264;28;20059;-64
2023/01/18 02:18:54;;;;;;;1.60;0.50;;;;;;;;;;5090334;28;20047;-65
2023/01/18 02:21:33;;;;;;;2.58;1.00;;;;;;;;;;5039782;28;20231;-64
2023/01/18 02:24:25;;;;;;;1.77;0.38;;;;;;;;;;5056397;28;20051;-64
2023/01/18 02:27:42;;;;;;;1.05;0.70;;;;;;;;;;5090159;28;20111;-64
2023/01/18 02:30:25;;;;;;;;;;;;;;;;;;4957989;28;20046;-64
2023/01/18 02:33:30;;;;;;;1.35;0.70;;;;;;;;;;4932157;29;19923;-64
2023/01/18 02:36:02;;;;;;;2.22;0.70;;;;;;;;;;4944406;29;20086;-64
2023/01/18 02:38:40;;;;;;;3.95;0.60;;;;;;;;;;4919918;29;20062;-64
2023/01/18 02:41:11;;;;;;;;;;;;;;;;;;4952232;29;20051;-64
2023/01/18 02:46:32;;;;;;;5.00;0.70;;;;;;;;;;4951336;29;20070;-64
2023/01/18 02:49:28;;;;;;;3.80;0.80;;;;;;;;;;4935206;29;20074;-64
2023/01/18 02:52:07;;;;;;;0.95;0.77;;;;;;;;;;4937926;29;20059;-64
2023/01/18 02:54:39;;;;;;;1.38;0.60;;;;;;;;;;4919540;29;20534;-64
2023/01/18 02:57:14;;;;;;;1.17;0.60;;;;;;;;;;4951248;29;20089;-64
2023/01/18 02:59:52;;;;;;;2.22;0.70;;;;;;;;;;4951240;29;20059;-64
2023/01/18 03:02:28;;;;;;;3.78;0.50;;;;;;;;;;4951103;29;20059;-64
2023/01/18 03:04:59;;;;;;;2.17;0.40;;;;;;;;;;4971080;28;20068;-64
2023/01/18 03:07:45;;;;;;;0.52;0.43;;;;;;;;;;4989674;28;20054;-64
2023/01/18 03:10:15;;;;;;;1.60;0.55;;;;;;;;;;4924223;28;20068;-64
2023/01/18 03:12:56;;;;;;;7.10;1.70;;;;;;;;;;4997033;28;20469;-64
2023/01/18 03:16:03;;;;;;;4.50;0.60;;;;;;;;;;5028897;28;20065;-64
2023/01/18 03:18:58;;;;;;;0.98;0.40;;;;;;;;;;5012325;28;20465;-64
2023/01/18 03:21:37;;;;;;;1.58;0.47;;;;;;;;;;5011840;28;20046;-64
2023/01/18 03:24:10;;;;;;;0.93;0.55;;;;;;;;;;5028752;28;20049;-64
2023/01/18 03:26:41;;;;;;;;;;;;;;;;;;5029266;28;20045;-64
2023/01/18 03:35:02;;;;;;;4.03;0.70;;;;;;;;;;4996081;28;20087;-63
2023/01/18 03:37:39;;;;;;;1.50;0.68;;;;;;;;;;4979470;28;20756;-63
2023/01/18 03:40:23;;;;;;;0.82;0.55;;;;;;;;;;5028656;28;20050;-63
2023/01/18 03:42:59;;;;;;;1.63;0.70;;;;;;;;;;4965583;28;20072;-63
2023/01/18 03:45:36;;;;;;;1.80;0.93;;;;;;;;;;5054869;28;20405;-63
2023/01/18 03:48:08;;;;;;;2.58;0.55;;;;;;;;;;5093205;28;20059;-64
2023/01/18 03:50:59;;;;;;;4.50;1.02;;;;;;;;;;5075627;28;20060;-64
2023/01/18 03:53:37;;;;;;;3.75;0.80;;;;;;;;;;5111761;28;20035;-64
2023/01/18 03:56:11;;;;;;;;;;;;;;;;;;5059816;28;20063;-64
2023/01/18 03:58:43;;;;;;;3.10;0.50;;;;;;;;;;5111328;28;19919;-64
2023/01/18 04:01:14;;;;;;;2.22;0.85;;;;;;;;;;5111285;28;20050;-64
2023/01/18 04:03:43;;;;;;;2.42;0.70;;;;;;;;;;5057932;28;20067;-64
2023/01/18 04:06:14;;;;;;;2.28;0.80;;;;;;;;;;5111505;28;20485;-63
2023/01/18 04:08:44;;;;;;;2.78;0.70;;;;;;;;;;5111481;28;20035;-63
2023/01/18 04:11:14;;;;;;;3.70;0.70;;;;;;;;;;5075354;28;20056;-63
2023/01/18 04:13:44;;;;;;;1.55;0.80;;;;;;;;;;5075354;28;20058;-64
2023/01/18 04:16:15;;;;;;;2.20;0.63;;;;;;;;;;5059009;28;20048;-64
2023/01/18 04:18:45;;;;;;;1.65;0.60;;;;;;;;;;5058642;28;20052;-63
2023/01/18 04:21:16;;;;;;;4.70;1.00;;;;;;;;;;5111102;28;20048;-64
2023/01/18 04:23:46;;;;;;;4.78;0.60;;;;;;;;;;5111353;28;20040;-64
2023/01/18 04:26:18;;;;;;;3.78;0.80;;;;;;;;;;5110810;28;20047;-63
2023/01/18 04:28:48;;;;;;;2.90;0.98;;;;;;;;;;5058370;28;20534;-64
2023/01/18 04:31:19;;;;;;;4.43;0.80;;;;;;;;;;5111247;28;20040;-64
2023/01/18 04:33:50;;;;;;;4.35;0.50;;;;;;;;;;5074875;28;20088;-64
2023/01/18 04:36:21;;;;;;;2.83;0.57;;;;;;;;;;5054477;28;20147;-64
2023/01/18 04:38:55;;;;;;;3.60;0.60;;;;;;;;;;5087860;28;20063;-64
2023/01/18 04:41:26;;;;;;;2.63;0.98;;;;;;;;;;5087945;28;20052;-64
2023/01/18 04:43:56;;;;;;;2.42;0.68;;;;;;;;;;5054473;28;20078;-63
2023/01/18 04:46:26;;;;;;;1.38;0.60;;;;;;;;;;5070747;28;20044;-64
2023/01/18 04:48:56;;;;;;;3.33;0.60;;;;;;;;;;5030772;28;20049;-64
2023/01/18 04:51:26;;;;;;;2.70;0.80;;;;;;;;;;5007878;28;20085;-64
2023/01/18 04:53:58;;;;;;;3.22;0.70;;;;;;;;;;5008115;28;20060;-64
2023/01/18 04:56:28;;;;;;;4.43;0.60;;;;;;;;;;4987986;28;20057;-64
2023/01/18 04:58:59;;;;;;;6.80;0.77;;;;;;;;;;4991572;28;20058;-64
2023/01/18 05:01:29;;;;;;;3.85;0.50;;;;;;;;;;4992000;28;20054;-64
2023/01/18 05:04:00;;;;;;;2.55;0.90;;;;;;;;;;4943697;28;20057;-64
2023/01/18 05:06:31;;;;;;;2.60;0.52;;;;;;;;;;4991939;28;20057;-64
2023/01/18 05:09:01;;;;;;;4.25;0.60;;;;;;;;;;4991689;28;20042;-64
2023/01/18 05:11:31;;;;;;;3.83;0.82;;;;;;;;;;4959442;28;20501;-64
2023/01/18 05:14:01;;;;;;;5.45;1.13;;;;;;;;;;4953381;28;20065;-64
2023/01/18 05:16:30;;;;;;;4.72;0.55;;;;;;;;;;4947534;28;20065;-64
2023/01/18 05:19:01;;;;;;;2.50;0.80;;;;;;;;;;5013418;28;20053;-64
2023/01/18 05:21:31;;;;;;;4.43;0.80;;;;;;;;;;5017697;28;20052;-64
2023/01/18 05:24:01;;;;;;;3.90;1.08;;;;;;;;;;5018155;28;20063;-64
2023/01/18 05:26:31;;;;;;;3.97;0.95;;;;;;;;;;5017712;28;20052;-64
2023/01/18 05:29:00;;;;;;;2.90;1.08;;;;;;;;;;5037984;28;20385;-64
2023/01/18 05:31:30;;;;;;;6.47;0.95;;;;;;;;;;5070787;28;20056;-64
2023/01/18 05:34:00;;;;;;;1.90;0.70;;;;;;;;;;5063814;28;20060;-64
2023/01/18 05:36:30;;;;;;;1.60;0.82;;;;;;;;;;5091300;28;20059;-63
2023/01/18 05:39:00;;;;;;;4.70;1.27;;;;;;;;;;5091240;28;20088;-64
2023/01/18 05:41:30;;;;;;;2.42;0.70;;;;;;;;;;5090749;28;20048;-64
2023/01/18 05:44:00;;;;;;;1.40;0.57;;;;;;;;;;5090910;28;20044;-64
2023/01/18 05:46:30;;;;;;;3.15;0.65;;;;;;;;;;5100778;28;20070;-64
2023/01/18 05:49:00;;;;;;;2.40;1.02;;;;;;;;;;5113568;28;20036;-64
2023/01/18 05:51:30;;;;;;;2.55;0.80;;;;;;;;;;5077584;28;20419;-64
2023/01/18 05:53:59;;;;;;;1.88;0.80;;;;;;;;;;5062459;28;20055;-64
2023/01/18 05:56:29;;;;;;;1.77;0.65;;;;;;;;;;5113609;28;20039;-64
2023/01/18 05:58:59;;;;;;;6.25;0.60;;;;;;;;;;5113578;28;20051;-64
2023/01/18 06:01:29;;;;;;;3.55;0.95;;;;;;;;;;5050417;28;20100;-64
2023/01/18 06:03:59;;;;;;;9.98;0.80;;;;;;;;;;5050069;28;20057;-64
2023/01/18 06:06:29;;;;;;;2.40;0.63;;;;;;;;;;5033820;28;20057;-64
2023/01/18 06:09:02;;;;;;;5.07;1.42;;;;;;;;;;5016041;28;20056;-64
2023/01/18 06:11:32;;;;;;;2.55;0.73;;;;;;;;;;5030173;28;20050;-64
2023/01/18 06:14:02;;;;;;;2.20;0.85;;;;;;;;;;5013753;28;20066;-64
2023/01/18 06:16:32;;;;;;;2.00;0.57;;;;;;;;;;5013722;28;20065;-64
2023/01/18 06:19:02;;;;;;;1.77;0.52;;;;;;;;;;5029943;28;20053;-64
2023/01/18 06:21:32;;;;;;;4.05;0.73;;;;;;;;;;5029913;28;20058;-64
2023/01/18 06:24:02;;;;;;;7.88;1.33;;;;;;;;;;5013250;28;20053;-64
2023/01/18 06:26:32;;;;;;;5.00;0.73;;;;;;;;;;4981160;28;20049;-64
2023/01/18 06:29:02;;;;;;;3.65;0.90;;;;;;;;;;5012646;28;20564;-64
2023/01/18 06:31:32;;;;;;;3.80;0.77;;;;;;;;;;4972774;28;20046;-64
2023/01/18 06:34:08;;;;;;;2.95;0.73;;;;;;;;;;5009829;28;20497;-63
2023/01/18 06:36:38;;;;;;;3.08;0.85;;;;;;;;;;4993393;28;20081;-64
2023/01/18 06:39:09;;;;;;;3.28;0.70;;;;;;;;;;5026229;28;20046;-64
2023/01/18 06:41:39;;;;;;;2.95;0.80;;;;;;;;;;5029175;28;20595;-64
2023/01/18 06:44:09;;;;;;;6.63;0.85;;;;;;;;;;5029322;28;20061;-64
2023/01/18 06:46:39;;;;;;;4.28;0.98;;;;;;;;;;5029802;28;20133;-64
2023/01/18 06:49:10;;;;;;;4.63;1.00;;;;;;;;;;5009477;28;20515;-64
2023/01/18 06:51:40;;;;;;;7.03;0.82;;;;;;;;;;4999706;28;20784;-64
2023/01/18 06:54:11;;;;;;;4.93;1.00;;;;;;;;;;5049273;28;20064;-64
2023/01/18 06:56:41;;;;;;;2.97;0.88;;;;;;;;;;4999954;28;20068;-64
2023/01/18 06:59:10;;;;;;;3.55;1.00;;;;;;;;;;5048850;28;20053;-64
2023/01/18 07:01:40;;;;;;;3.63;1.40;;;;;;;;;;5001235;28;20061;-64
2023/01/18 07:04:10;;;;;;;6.60;1.50;;;;;;;;;;5049159;28;20065;-64
2023/01/18 07:06:40;;;;;;;7.00;1.50;;;;;;;;;;5032377;28;20060;-64
2023/01/18 07:09:12;;;;;;;5.28;1.83;;;;;;;;;;5058788;28;20064;-64
2023/01/18 07:11:42;;;;;;;4.50;1.73;;;;;;;;;;5052526;28;20056;-64
2023/01/18 07:14:12;;;;;;;5.97;2.22;;;;;;;;;;5051955;28;20431;-64
2023/01/18 07:16:42;;;;;;;5.55;1.92;;;;;;;;;;5068763;28;20049;-64
2023/01/18 07:19:13;;;;;;;13.13;1.88;;;;;;;;;;5082123;28;20054;-64
2023/01/18 07:21:45;;;;;;;5.15;1.92;;;;;;;;;;5111662;28;20055;-64
2023/01/18 07:24:17;;;;;;;8.00;1.73;;;;;;;;;;5111899;28;20097;-64
2023/01/18 07:26:48;;;;;;;3.15;1.50;;;;;;;;;;5112045;28;20055;-64
2023/01/18 07:29:17;;;;;;;5.55;1.45;;;;;;;;;;5111720;28;20487;-64
2023/01/18 07:31:48;;;;;;;5.82;1.58;;;;;;;;;;5111410;28;20483;-64
2023/01/18 07:34:17;;;;;;;3.67;1.30;;;;;;;;;;5075926;28;20060;-64
2023/01/18 07:36:48;;;;;;;4.00;1.40;;;;;;;;;;5111779;28;20058;-64
2023/01/18 07:39:18;;;;;;;6.95;1.60;;;;;;;;;;5059045;28;20063;-64
2023/01/18 07:41:48;;;;;;;2.97;1.33;;;;;;;;;;5075567;28;20066;-64
2023/01/18 07:44:18;;;;;;;6.38;1.45;;;;;;;;;;5111467;28;20502;-64
2023/01/18 07:46:48;;;;;;;4.88;1.20;;;;;;;;;;5111562;28;20652;-64
2023/01/18 07:49:17;;;;;;;5.35;1.17;;;;;;;;;;5111180;28;20044;-64
2023/01/18 07:51:47;;;;;;;3.63;1.30;;;;;;;;;;5111516;28;20048;-64
2023/01/18 07:54:17;;;;;;;4.63;1.60;;;;;;;;;;5111522;28;20054;-64
2023/01/18 07:56:48;;;;;;;5.68;1.73;;;;;;;;;;5111282;28;20377;-64
2023/01/18 07:59:18;;;;;;;4.22;1.27;;;;;;;;;;5075511;28;20503;-64
2023/01/18 08:01:48;;;;;;;3.25;1.30;;;;;;;;;;5075285;28;20063;-65
2023/01/18 08:04:17;;;;;;;6.47;1.20;;;;;;;;;;5111353;28;20044;-64
2023/01/18 08:06:47;;;;;;;2.80;1.50;;;;;;;;;;5111255;28;20408;-64
2023/01/18 08:09:17;;;;;;;2.72;1.20;;;;;;;;;;5111363;28;20430;-65
2023/01/18 08:11:47;;;;;;;3.80;1.40;;;;;;;;;;5093104;28;20411;-65
2023/01/18 08:14:17;;;;;;;5.13;1.40;;;;;;;;;;5111388;28;20048;-64
2023/01/18 08:16:47;;;;;;;4.97;2.00;;;;;;;;;;5111046;28;20043;-65
2023/01/18 08:19:17;;;;;;;5.70;1.67;;;;;;;;;;5059957;28;20070;-65
2023/01/18 08:21:47;;;;;;;2.47;1.15;;;;;;;;;;5075528;28;20066;-65
2023/01/18 08:24:17;;;;;;;3.92;1.30;;;;;;;;;;5025451;28;20058;-64
2023/01/18 08:26:46;;;;;;;3.58;1.25;;;;;;;;;;5074959;28;20060;-65
2023/01/18 08:29:16;;;;;;;6.07;1.98;;;;;;;;;;5111117;28;20402;-65
2023/01/18 08:31:51;;;;;;;6.20;1.58;;;;;;;;;;5110856;28;20062;-65
2023/01/18 08:34:21;;;;;;;3.25;1.42;;;;;;;;;;5045187;28;20530;-65
2023/01/18 08:36:51;;;;;;;7.10;1.42;;;;;;;;;;5078798;28;20124;-65
2023/01/18 08:39:22;;;;;;;19.88;1.77;;;;;;;;;;5091949;28;20055;-65
2023/01/18 08:41:52;;;;;;;9.20;1.15;;;;;;;;;;5058296;28;20052;-65
2023/01/18 08:44:21;;;;;;;3.67;1.23;;;;;;;;;;5042842;28;20064;-65
2023/01/18 08:46:51;;;;;;;2.47;1.55;;;;;;;;;;5091812;28;20052;-65
2023/01/18 08:49:21;;;;;;;7.50;1.40;;;;;;;;;;5091708;28;20075;-65
2023/01/18 08:51:51;;;;;;;3.13;1.35;;;;;;;;;;5091740;28;20060;-65
2023/01/18 08:54:21;;;;;;;6.28;1.48;;;;;;;;;;5091803;28;20052;-65
2023/01/18 08:56:51;;;;;;;2.80;1.30;;;;;;;;;;5091853;28;20060;-64
2023/01/18 08:59:22;;;;;;;7.40;2.10;;;;;;;;;;5091813;28;20052;-64
2023/01/18 09:01:53;;;;;;;7.10;1.60;;;;;;;;;;5058586;28;20119;-65
2023/01/18 09:04:23;;;;;;;3.33;1.40;;;;;;;;;;5041171;28;20488;-65
2023/01/18 09:06:53;;;;;;;7.13;2.35;;;;;;;;;;5091758;28;20080;-64
2023/01/18 09:09:23;;;;;;;5.43;2.10;;;;;;;;;;5091391;28;20532;-65
2023/01/18 09:11:55;;;;;;;4.53;1.60;;;;;;;;;;5026100;28;20064;-65
2023/01/18 09:14:26;;;;;;;2.90;1.52;;;;;;;;;;5074879;28;20056;-65
2023/01/18 09:16:56;;;;;;;6.28;1.52;;;;;;;;;;5051027;28;20056;-64
2023/01/18 09:19:25;;;;;;;3.90;1.75;;;;;;;;;;5114314;28;20051;-65
2023/01/18 09:21:56;;;;;;;10.63;1.90;;;;;;;;;;5114126;28;20039;-65
2023/01/18 09:24:25;;;;;;;3.90;1.35;;;;;;;;;;5114032;28;20051;-65
2023/01/18 09:26:55;;;;;;;6.28;1.58;;;;;;;;;;5114211;28;20043;-65
2023/01/18 09:29:25;;;;;;;6.65;1.80;;;;;;;;;;5077795;28;20510;-65
2023/01/18 09:31:55;;;;;;;3.78;1.33;;;;;;;;;;5114190;28;20058;-65
2023/01/18 09:34:25;;;;;;;4.25;1.88;;;;;;;;;;5094821;28;20054;-65
2023/01/18 09:36:55;;;;;;;5.45;1.70;;;;;;;;;;5114034;28;20048;-65
2023/01/18 09:39:26;;;;;;;6.47;1.60;;;;;;;;;;5114061;28;20048;-65
2023/01/18 09:42:03;;;;;;;7.90;2.08;;;;;;;;;;5044210;28;20612;-65
2023/01/18 09:44:40;;;;;;;5.38;1.98;;;;;;;;;;5112228;28;20047;-65
2023/01/18 09:47:26;;;;;;;5.57;1.73;;;;;;;;;;5113408;28;20043;-65
2023/01/18 09:50:15;;;;;;;5.00;1.75;;;;;;;;;;5113340;28;20042;-65
2023/01/18 09:53:39;;;;;;;9.27;3.45;;;;;;;;;;5090435;28;20503;-65
2023/01/18 09:56:22;;;;;;;5.45;3.15;;;;;;;;;;5030502;28;20093;-65
2023/01/18 09:59:31;;;;;;;8.88;5.63;;;;;;;;;;5030452;28;20056;-65
2023/01/18 10:02:18;;;;;;;10.20;4.05;;;;;;;;;;4955275;28;20523;-65
2023/01/18 10:05:00;;;;;;;6.25;2.60;;;;;;;;;;4971564;28;20051;-65
2023/01/18 10:07:35;;;;;;;6.45;2.38;;;;;;;;;;4971532;28;20055;-65
2023/01/18 10:10:14;;;;;;;7.28;2.17;;;;;;;;;;4939133;28;20538;-65
2023/01/18 10:13:08;;;;;;;5.70;2.05;;;;;;;;;;4939264;28;20452;-65
2023/01/18 10:15:40;;;;;;;6.32;1.70;;;;;;;;;;4939193;28;20058;-65
2023/01/18 10:18:18;;;;;;;3.28;1.58;;;;;;;;;;4971208;28;20511;-66
2023/01/18 10:21:06;;;;;;;6.97;1.27;;;;;;;;;;4955216;28;20066;-65
2023/01/18 10:23:54;;;;;;;2.47;1.38;;;;;;;;;;4971201;28;20534;-66
2023/01/18 10:26:29;;;;;;;2.92;1.02;;;;;;;;;;4970960;28;20085;-66
2023/01/18 10:29:25;;;;;;;2.65;1.13;;;;;;;;;;4974702;28;20054;-66
2023/01/18 10:32:18;;;;;;;3.30;1.10;;;;;;;;;;5029837;28;20061;-65
2023/01/18 10:34:50;;;;;;;2.20;0.98;;;;;;;;;;4980792;28;20544;-65
2023/01/18 10:37:39;;;;;;;6.30;1.70;;;;;;;;;;5029714;28;20410;-65
2023/01/18 10:40:11;;;;;;;3.95;1.20;;;;;;;;;;5112998;28;20396;-65
2023/01/18 10:42:50;;;;;;;2.30;1.50;;;;;;;;;;5077164;28;20418;-65
2023/01/18 10:45:26;;;;;;;1.75;1.02;;;;;;;;;;5069455;28;20431;-65
2023/01/18 10:48:14;;;;;;;4.55;1.33;;;;;;;;;;5052909;28;20067;-65
2023/01/18 10:50:47;;;;;;;2.10;1.02;;;;;;;;;;5003674;28;20075;-65
2023/01/18 10:53:26;;;;;;;4.28;1.13;;;;;;;;;;5053101;28;20059;-66
2023/01/18 10:56:04;;;;;;;3.83;1.60;;;;;;;;;;5019057;28;20048;-65
2023/01/18 10:58:52;;;;;;;2.63;1.25;;;;;;;;;;5019579;28;20060;-65
2023/01/18 11:01:26;;;;;;;4.72;1.02;;;;;;;;;;5019087;28;20053;-66
2023/01/18 11:04:07;;;;;;;4.35;1.25;;;;;;;;;;5069100;28;20499;-65
2023/01/18 11:06:49;;;;;;;3.03;1.30;;;;;;;;;;5035413;28;20060;-66
2023/01/18 11:09:40;;;;;;;5.57;1.70;;;;;;;;;;5069067;28;20587;-66
2023/01/18 11:12:37;;;;;;;4.53;2.28;;;;;;;;;;5069109;28;20432;-66
2023/01/18 11:15:16;;;;;;;3.65;1.73;;;;;;;;;;5002538;28;20048;-68
2023/01/18 11:18:01;;;;;;;7.72;1.92;;;;;;;;;;5072346;28;20052;-65
2023/01/18 11:20:48;;;;;;;4.90;2.47;;;;;;;;;;5089372;28;20052;-66
2023/01/18 11:23:20;;;;;;;4.57;1.83;;;;;;;;;;5055095;28;20617;-65
2023/01/18 11:25:56;;;;;;;10.23;3.58;;;;;;;;;;5089042;28;20566;-66
2023/01/18 11:28:29;;;;;;;6.85;3.40;;;;;;;;;;5071855;28;20401;-65
2023/01/18 11:31:10;;;;;;;10.00;4.72;;;;;;;;;;5100319;28;20051;-65
2023/01/18 11:33:54;;;;;;;11.68;6.03;;;;;;;;;;5111666;28;20391;-65
2023/01/18 11:36:41;;;;;;;14.23;6.88;;;;;;;;;;5092528;28;20131;-65
2023/01/18 11:39:17;;;;;;;;;;;;;;;;;;5061414;28;20376;-65
2023/01/18 11:41:50;;;;;;;17.30;6.03;;;;;;;;;;5111370;28;20406;-65
2023/01/18 11:44:32;;;;;;;10.15;5.68;;;;;;;;;;5048157;28;20056;-65
2023/01/18 11:47:11;;;;;;;13.80;6.13;;;;;;;;;;5016886;28;20057;-66
2023/01/18 11:49:53;;;;;;;16.00;6.70;;;;;;;;;;5015440;28;20049;-65
2023/01/18 11:53:17;;;;;;;14.07;6.53;;;;;;;;;;5008672;28;20049;-66
2023/01/18 11:56:16;;;;;;;12.90;6.10;;;;;;;;;;4950375;28;20055;-65
2023/01/18 11:58:48;;;;;;;13.00;5.88;;;;;;;;;;4912179;29;20060;-65
2023/01/18 12:01:48;;;;;;;11.27;5.53;;;;;;;;;;4896673;29;20603;-66
2023/01/18 12:04:42;;;;;;;12.02;4.68;;;;;;;;;;4896347;29;20071;-66
2023/01/18 12:07:30;;;;;;;10.32;4.00;;;;;;;;;;4895652;29;20052;-68
2023/01/18 12:10:01;;;;;;;8.27;4.40;;;;;;;;;;4880374;29;20052;-66
2023/01/18 12:12:32;;;;;;;;;;;;;;;;;;4912729;29;20052;-66
2023/01/18 12:15:30;;;;;;;7.35;3.63;;;;;;;;;;4918058;29;19923;-66
2023/01/18 12:18:58;;;;;;;11.15;4.65;;;;;;;;;;4911847;29;20056;-66
2023/01/18 12:21:28;;;;;;;6.47;3.63;;;;;;;;;;4864369;29;20063;-66
2023/01/18 12:24:33;;;;;;;6.88;3.50;;;;;;;;;;4892819;29;20065;-67
2023/01/18 12:27:03;;;;;;;7.07;3.05;;;;;;;;;;4893320;29;20178;-65
2023/01/18 12:30:15;;;;;;;8.02;3.47;;;;;;;;;;4913257;29;20066;-66
2023/01/18 12:33:00;;;;;;;7.45;3.28;;;;;;;;;;4934150;29;20082;-68
2023/01/18 12:35:46;;;;;;;5.68;2.80;;;;;;;;;;4947908;28;20069;-66
2023/01/18 12:38:26;;;;;;;5.25;0.80;;;;;;;;;;4972521;28;20731;-66
2023/01/18 12:41:30;;;;;;;1.00;0.60;;;;;;;;;;4972810;28;20058;-66
2023/01/18 12:44:06;;;;;;;2.20;0.82;;;;;;;;;;4988860;28;20515;-66
2023/01/18 12:46:49;;;;;;;1.17;0.50;;;;;;;;;;4988912;28;20494;-67
2023/01/18 12:49:21;;;;;;;1.30;1.10;;;;;;;;;;4988505;28;20125;-66
2023/01/18 12:51:57;;;;;;;4.32;0.75;;;;;;;;;;4988736;28;20050;-67
2023/01/18 12:54:51;;;;;;;2.92;0.70;;;;;;;;;;4991556;28;20089;-66
2023/01/18 12:57:24;;;;;;;3.60;0.68;;;;;;;;;;4959724;28;20073;-66
2023/01/18 12:59:55;;;;;;;1.02;0.63;;;;;;;;;;5008267;28;20049;-66
2023/01/18 13:02:40;;;;;;;2.60;0.70;;;;;;;;;;5008009;28;20202;-66
2023/01/18 13:05:23;;;;;;;0.82;0.40;;;;;;;;;;5109557;28;20052;-66
2023/01/18 13:08:07;;;;;;;2.33;0.60;;;;;;;;;;5074843;28;20511;-66
2023/01/18 13:10:38;;;;;;;2.20;0.82;;;;;;;;;;5060801;28;20044;-69
2023/01/18 13:13:16;;;;;;;2.20;0.80;;;;;;;;;;5110471;28;20043;-66
2023/01/18 13:15:47;;;;;;;1.10;0.52;;;;;;;;;;5110588;28;20043;-67
2023/01/18 13:18:20;;;;;;;1.23;0.70;;;;;;;;;;5075004;28;20419;-67
2023/01/18 13:21:27;;;;;;;1.17;0.65;;;;;;;;;;5063243;28;20056;-67
2023/01/18 13:24:28;;;;;;;1.92;0.73;;;;;;;;;;5114549;28;20066;-67
2023/01/18 13:27:14;;;;;;;1.73;0.60;;;;;;;;;;5114383;28;20039;-64
2023/01/18 13:29:45;;;;;;;2.38;0.60;;;;;;;;;;5114014;28;20518;-65
2023/01/18 13:32:31;;;;;;;3.22;0.55;;;;;;;;;;5078007;28;20062;-65
2023/01/18 13:35:27;;;;;;;1.02;0.50;;;;;;;;;;5078075;28;20058;-67
2023/01/18 13:38:12;;;;;;;1.42;0.60;;;;;;;;;;5010949;28;20510;-65
2023/01/18 13:40:52;;;;;;;3.25;0.60;;;;;;;;;;4994571;28;20061;-65
2023/01/18 13:43:36;;;;;;;3.17;0.60;;;;;;;;;;5010966;28;20065;-65
2023/01/18 13:46:08;;;;;;;;;;;;;;;;;;5011557;28;20049;-65
2023/01/18 13:48:46;;;;;;;1.20;0.60;;;;;;;;;;5010979;28;19921;-66
2023/01/18 13:51:40;;;;;;;1.23;0.68;;;;;;;;;;5010896;28;20053;-65
2023/01/18 13:54:34;;;;;;;4.60;0.95;;;;;;;;;;4994359;28;20054;-65
2023/01/18 13:57:08;;;;;;;3.58;0.70;;;;;;;;;;4991265;28;20051;-66
2023/01/18 13:59:44;;;;;;;2.08;0.98;;;;;;;;;;4958791;28;20101;-65
2023/01/18 14:02:44;;;;;;;0.73;0.60;;;;;;;;;;4974708;28;20058;-66
2023/01/18 14:05:26;;;;;;;3.42;0.70;;;;;;;;;;4958763;28;20066;-65
2023/01/18 14:08:00;;;;;;;3.75;0.80;;;;;;;;;;4990836;28;20059;-65
2023/01/18 14:10:31;;;;;;;4.05;1.00;;;;;;;;;;4975067;28;20065;-66
2023/01/18 14:13:07;;;;;;;1.15;0.60;;;;;;;;;;4952444;29;20052;-66
2023/01/18 14:15:47;;;;;;;1.27;0.50;;;;;;;;;;4981822;28;20065;-65
2023/01/18 14:18:26;;;;;;;1.33;0.80;;;;;;;;;;4993958;28;20058;-65
2023/01/18 14:21:42;;;;;;;0.93;0.52;;;;;;;;;;4971133;28;20059;-65
2023/01/18 14:24:58;;;;;;;1.05;0.47;;;;;;;;;;4971464;28;20062;-65
2023/01/18 14:27:37;;;;;;;2.10;0.70;;;;;;;;;;4971389;28;20201;-65
2023/01/18 14:30:26;;;;;;;2.00;0.70;;;;;;;;;;4922594;28;20063;-65
2023/01/18 14:33:26;;;;;;;1.65;0.73;;;;;;;;;;4971164;28;20542;-66
2023/01/18 14:35:57;;;;;;;4.53;1.30;;;;;;;;;;4895048;29;20092;-66
2023/01/18 14:38:29;;;;;;;1.30;0.70;;;;;;;;;;4894619;29;20056;-65
2023/01/18 14:41:05;;;;;;;1.95;0.70;;;;;;;;;;4894720;29;20072;-65
2023/01/18 14:43:42;;;;;;;3.33;0.93;;;;;;;;;;4894669;29;20060;-65
2023/01/18 14:46:23;;;;;;;2.88;0.85;;;;;;;;;;4894437;29;20056;-66
2023/01/18 14:48:56;;;;;;;2.15;0.73;;;;;;;;;;4878885;29;20512;-66
2023/01/18 14:51:27;;;;;;;1.73;0.70;;;;;;;;;;4879332;29;20190;-67
2023/01/18 14:54:01;;;;;;;1.85;0.80;;;;;;;;;;4913279;29;20567;-65
2023/01/18 14:56:39;;;;;;;3.17;1.30;;;;;;;;;;4913182;29;20052;-66
2023/01/18 14:59:26;;;;;;;6.75;0.98;;;;;;;;;;4940449;28;20164;-65
2023/01/18 15:02:02;;;;;;;3.10;0.82;;;;;;;;;;4938532;28;20081;-65
2023/01/18 15:04:35;;;;;;;3.13;0.73;;;;;;;;;;4963086;28;20058;-66
2023/01/18 15:07:12;;;;;;;1.92;1.35;;;;;;;;;;4977017;28;20086;-66
2023/01/18 15:09:44;;;;;;;1.27;0.80;;;;;;;;;;4970397;28;20590;-66
2023/01/18 15:12:23;;;;;;;1.98;0.65;;;;;;;;;;5010656;28;20056;-67
2023/01/18 15:14:54;;;;;;;2.95;1.60;;;;;;;;;;5069254;28;20063;-67
2023/01/18 15:17:25;;;;;;;1.75;0.75;;;;;;;;;;5068789;28;20068;-66
2023/01/18 15:20:01;;;;;;;3.05;1.15;;;;;;;;;;5069096;28;20052;-66
2023/01/18 15:22:36;;;;;;;5.68;1.13;;;;;;;;;;5068835;28;20048;-66
2023/01/18 15:25:20;;;;;;;2.05;0.82;;;;;;;;;;5019530;28;20052;-66
2023/01/18 15:27:52;;;;;;;3.63;1.58;;;;;;;;;;5068749;28;20052;-66
2023/01/18 15:30:23;;;;;;;1.73;0.70;;;;;;;;;;5035120;28;20053;-68
2023/01/18 15:32:56;;;;;;;1.40;0.70;;;;;;;;;;5028203;28;20132;-66
2023/01/18 15:35:29;;;;;;;1.95;0.80;;;;;;;;;;4963652;28;20056;-66
2023/01/18 15:38:01;;;;;;;2.45;0.60;;;;;;;;;;5011938;28;20524;-65
2023/01/18 15:40:32;;;;;;;1.25;0.73;;;;;;;;;;5016349;28;20501;-66
2023/01/18 15:43:22;;;;;;;2.08;0.70;;;;;;;;;;5028772;28;20057;-67
2023/01/18 15:45:55;;;;;;;1.95;0.82;;;;;;;;;;5028381;28;20053;-66
2023/01/18 15:48:30;;;;;;;1.88;0.80;;;;;;;;;;4995801;28;20064;-66
2023/01/18 15:51:07;;;;;;;1.52;0.70;;;;;;;;;;4949505;28;20080;-67
2023/01/18 15:53:51;;;;;;;1.90;0.80;;;;;;;;;;5028520;28;20057;-66
2023/01/18 15:56:28;;;;;;;2.83;0.95;;;;;;;;;;4995365;28;20671;-67
2023/01/18 15:59:00;;;;;;;2.17;0.60;;;;;;;;;;5027990;28;20061;-66
2023/01/18 16:01:34;;;;;;;1.70;0.60;;;;;;;;;;5028280;28;20050;-67
2023/01/18 16:04:24;;;;;;;1.67;0.65;;;;;;;;;;5028575;28;20053;-66
2023/01/18 16:06:54;;;;;;;1.02;0.60;;;;;;;;;;5028562;28;20056;-66
2023/01/18 16:09:25;;;;;;;1.23;0.68;;;;;;;;;;5030415;28;20072;-66